Airfield :
LOGIN :

Register | Disclaimer

   EN    FR    IT 

 










Legend :    VFR   Marginal VFR   IFR   Intensive IFR   Very Intensive IFR
Visi :
Ceiling :
>= 8 km
>= 3000ft
5 to 8 km
1000 to 3000 ft
1500m to 5 km
500 to 1000 ft
800 to 1500m
200 to 500 ft
< 800m
< 200 ft
Symbols :   Thunderstorms  Fog  Heavy snow  Heavy precipitations  Wind > 20 kt
SIGMETs :     Misc.  Thunderstorms  Icing  Turbulence  Mountain Waves  Volcanic Ashes






- Airport Elevation : 120 ft
- IATA code : MME


EGNV - Durham Tees valley

CURRENT METAR :
  • 071520Z 17007KT 140V210 9999 VCSH FEW020 SCT040 10/02 Q1014

EXPIRED METARs :
  • 071450Z 17008KT 9999 FEW020 10/02 Q1014
  • 071420Z 22007KT 180V260 9999 FEW020 SCT040 09/02 Q1014
  • 071350Z 24009KT 9999 VCSH FEW015 SCT025 09/02 Q1014
  • 071320Z 23007KT 9999 VCSH FEW015 SCT030 09/02 Q1014
  • 071250Z 21013KT 9999 VCSH FEW018 SCT035 08/03 Q1014

TAF TAF EGNV
Valid from the 07 at 15:00 until the 07 at 21:00 UTC


071359Z 0715/0721 VRB03KT 9999 FEW020
TEMPO 0715/0719 7000 SHRA
PROB30
TEMPO 0715/0717 4000 +SHRA
ATIS : +44 9012 018 111



MET'MAP, your aeronautical weather chart ! - Copyright ORBIFLY December 2007 - Disclaimer

ORBIFLY MET'MAP TEAM :

Programming & Development : Alexandra Zaïnal
Concept & original design : Baudouin d'Aumeries
Assistance for programming : Marc-Olivier Méhu
Technical & hardware support : Manuel Goepfert

Contact : metmap@orbifly.com




SOURCES & CREDITS :

   NOAA